Terminal Aerodrome Forecast
Issued by NWS Omaha/Valley, NE

Home | Current Version | Previous Version | Text Only | Print | Product List | Glossary Off
Versions: 1 2 3 4 5 6 7 8 9 10 11 12 13 14 15 16 17 18 19 20 21 22 23 24 25 26 27 28 29 30 31 32 33 34 35 36 37 38 39

000
FTUS43 KOAX 041139
TAFOFK
TAF
KOFK 041139Z 0412/0512 03013G21KT P6SM BKN080
      TEMPO 0414/0418 5SM -TSRA BKN040CB
     FM041800 07012G20KT P6SM OVC040
      TEMPO 0418/0422 4SM -TSRA BKN025CB
     FM050100 07008KT P6SM OVC015=

USA.gov is the U.S. government's official web portal to all federal, state and local government web resources and services.